Plymouth, Michigan
Current Conditions -  °F | °C
As of 10:18 PM on Monday 20 Oct 2014 (Local Time) from KYIP Reporting Station
Haze Haze  
Wind Chill: 56°   Ceiling: 3300
Heat Index: 56°   Visibility: 6mi
Dew Point: 50°   Wind: 10mph
Humidity: 80%   Direction: 310°NW
Pressure: 29.86"   Gusts: NA
Location:  42.37°N, 83.47°W
Report Text: KYIP 210218Z AUTO 31009KT 6SM HZ FEW019 BKN033 OVC047 13/10 A2986 RMK AO2 T01330100 TSNO
Loading
Personal Weather Stations






























Interactive Weather Map
Tropical Storm Tracking
New forecast layout! Learn more

10-Day Weather Forecast

Advertisements
Track Severe Weather on mobile